sensor_id;sensor_type;location;lat;lon;timestamp;pressure;altitude;pressure_sealevel;temperature;humidity
71764;BME280;59602;52.142;5.408;2023-02-10T00:02:04;103666.44;;;2.16;92.84
71764;BME280;59602;52.142;5.408;2023-02-10T00:04:31;103679.56;;;2.12;92.95
71764;BME280;59602;52.142;5.408;2023-02-10T00:06:57;103675.47;;;2.10;92.83
71764;BME280;59602;52.142;5.408;2023-02-10T00:09:25;103674.09;;;2.07;92.70
71764;BME280;59602;52.142;5.408;2023-02-10T00:11:51;103675.47;;;2.10;92.79
71764;BME280;59602;52.142;5.408;2023-02-10T00:14:26;103681.69;;;2.10;92.67
71764;BME280;59602;52.142;5.408;2023-02-10T00:16:54;103688.09;;;2.09;92.37
71764;BME280;59602;52.142;5.408;2023-02-10T00:19:23;103687.28;;;2.08;92.80
71764;BME280;59602;52.142;5.408;2023-02-10T00:21:51;103680.56;;;2.06;92.96
71764;BME280;59602;52.142;5.408;2023-02-10T00:24:17;103685.91;;;2.06;92.52
71764;BME280;59602;52.142;5.408;2023-02-10T00:26:44;103680.03;;;2.09;92.46
71764;BME280;59602;52.142;5.408;2023-02-10T00:29:12;103676.78;;;2.07;92.65
71764;BME280;59602;52.142;5.408;2023-02-10T00:31:39;103687.53;;;2.07;92.42
71764;BME280;59602;52.142;5.408;2023-02-10T00:34:10;103678.66;;;2.06;92.41
71764;BME280;59602;52.142;5.408;2023-02-10T00:36:37;103682.91;;;2.02;92.31
71764;BME280;59602;52.142;5.408;2023-02-10T00:39:03;103676.69;;;1.97;92.21
71764;BME280;59602;52.142;5.408;2023-02-10T00:41:30;103680.94;;;1.93;92.32
71764;BME280;59602;52.142;5.408;2023-02-10T00:43:57;103685.22;;;1.94;92.21
71764;BME280;59602;52.142;5.408;2023-02-10T00:46:24;103687.41;;;1.97;92.41
71764;BME280;59602;52.142;5.408;2023-02-10T00:48:51;103688.78;;;1.99;92.08
71764;BME280;59602;52.142;5.408;2023-02-10T00:51:18;103678.88;;;2.00;92.41
71764;BME280;59602;52.142;5.408;2023-02-10T00:53:46;103693.59;;;1.97;92.49
71764;BME280;59602;52.142;5.408;2023-02-10T00:56:18;103694.97;;;2.00;92.63
71764;BME280;59602;52.142;5.408;2023-02-10T00:58:46;103698.53;;;2.05;92.65
71764;BME280;59602;52.142;5.408;2023-02-10T01:01:13;103687.78;;;2.05;92.37
71764;BME280;59602;52.142;5.408;2023-02-10T01:03:40;103693.09;;;2.00;91.73
71764;BME280;59602;52.142;5.408;2023-02-10T01:06:07;103686.59;;;1.96;91.95
71764;BME280;59602;52.142;5.408;2023-02-10T01:08:34;103692.78;;;1.97;92.20
71764;BME280;59602;52.142;5.408;2023-02-10T01:11:04;103686.34;;;1.98;91.64
71764;BME280;59602;52.142;5.408;2023-02-10T01:13:31;103686.03;;;1.94;91.67
71764;BME280;59602;52.142;5.408;2023-02-10T01:16:05;103692.97;;;1.90;91.81
71764;BME280;59602;52.142;5.408;2023-02-10T01:18:31;103694.53;;;1.86;91.55
71764;BME280;59602;52.142;5.408;2023-02-10T01:20:58;103700.63;;;1.81;91.50
71764;BME280;59602;52.142;5.408;2023-02-10T01:23:24;103696.59;;;1.79;91.67
71764;BME280;59602;52.142;5.408;2023-02-10T01:25:51;103717.22;;;1.78;91.60
71764;BME280;59602;52.142;5.408;2023-02-10T01:28:17;103719.78;;;1.68;90.97
71764;BME280;59602;52.142;5.408;2023-02-10T01:30:44;103711.81;;;1.56;90.53
71764;BME280;59602;52.142;5.408;2023-02-10T01:33:13;103718.66;;;1.47;90.57
71764;BME280;59602;52.142;5.408;2023-02-10T01:35:39;103712.66;;;1.40;90.10
71764;BME280;59602;52.142;5.408;2023-02-10T01:38:06;103710.94;;;1.34;89.87
71764;BME280;59602;52.142;5.408;2023-02-10T01:40:33;103709.84;;;1.30;89.65
71764;BME280;59602;52.142;5.408;2023-02-10T01:42:59;103705.44;;;1.23;89.86
71764;BME280;59602;52.142;5.408;2023-02-10T01:45:35;103702.44;;;1.20;89.35
71764;BME280;59602;52.142;5.408;2023-02-10T01:48:04;103711.19;;;1.15;89.82
71764;BME280;59602;52.142;5.408;2023-02-10T01:50:42;103711.69;;;1.12;89.60
71764;BME280;59602;52.142;5.408;2023-02-10T01:53:11;103717.28;;;1.11;89.51
71764;BME280;59602;52.142;5.408;2023-02-10T01:55:40;103704.88;;;1.04;89.17
71764;BME280;59602;52.142;5.408;2023-02-10T01:58:11;103713.41;;;1.01;89.32
71764;BME280;59602;52.142;5.408;2023-02-10T02:00:38;103705.28;;;0.96;89.46
71764;BME280;59602;52.142;5.408;2023-02-10T02:03:05;103710.88;;;0.95;89.13
71764;BME280;59602;52.142;5.408;2023-02-10T02:05:33;103712.97;;;0.93;89.47
71764;BME280;59602;52.142;5.408;2023-02-10T02:08:05;103715.09;;;0.91;89.25
71764;BME280;59602;52.142;5.408;2023-02-10T02:10:42;103715.31;;;0.89;88.80
71764;BME280;59602;52.142;5.408;2023-02-10T02:13:31;103718.84;;;0.90;89.58
71764;BME280;59602;52.142;5.408;2023-02-10T02:16:21;103724.41;;;0.88;89.23
71764;BME280;59602;52.142;5.408;2023-02-10T02:19:16;103723.63;;;0.88;89.17
71764;BME280;59602;52.142;5.408;2023-02-10T02:24:48;103721.16;;;0.86;89.21
71764;BME280;59602;52.142;5.408;2023-02-10T02:27:23;103714.44;;;0.83;89.31
71764;BME280;59602;52.142;5.408;2023-02-10T02:32:39;103719.38;;;0.75;89.43
71764;BME280;59602;52.142;5.408;2023-02-10T02:35:13;103721.69;;;0.71;88.89
71764;BME280;59602;52.142;5.408;2023-02-10T02:37:44;103714.97;;;0.69;88.85
71764;BME280;59602;52.142;5.408;2023-02-10T02:40:13;103725.69;;;0.69;89.35
71764;BME280;59602;52.142;5.408;2023-02-10T02:42:40;103725.94;;;0.67;89.00
71764;BME280;59602;52.142;5.408;2023-02-10T02:45:12;103726.16;;;0.66;88.93
71764;BME280;59602;52.142;5.408;2023-02-10T02:48:02;103727.47;;;0.63;89.13
71764;BME280;59602;52.142;5.408;2023-02-10T02:58:39;103730.16;;;0.63;89.53
71764;BME280;59602;52.142;5.408;2023-02-10T03:01:16;103732.47;;;0.59;88.65
71764;BME280;59602;52.142;5.408;2023-02-10T03:03:47;103722.00;;;0.58;89.28
71764;BME280;59602;52.142;5.408;2023-02-10T03:06:14;103722.00;;;0.58;89.23
71764;BME280;59602;52.142;5.408;2023-02-10T03:08:41;103717.94;;;0.55;89.21
71764;BME280;59602;52.142;5.408;2023-02-10T03:11:07;103715.75;;;0.52;88.79
71764;BME280;59602;52.142;5.408;2023-02-10T03:13:35;103724.00;;;0.51;88.90
71764;BME280;59602;52.142;5.408;2023-02-10T03:16:02;103727.19;;;0.48;88.43
71764;BME280;59602;52.142;5.408;2023-02-10T03:18:29;103727.09;;;0.43;88.38
71764;BME280;59602;52.142;5.408;2023-02-10T03:20:56;103718.94;;;0.37;88.21
71764;BME280;59602;52.142;5.408;2023-02-10T03:23:22;103719.19;;;0.36;88.45
71764;BME280;59602;52.142;5.408;2023-02-10T03:25:50;103719.66;;;0.33;88.35
71764;BME280;59602;52.142;5.408;2023-02-10T03:28:17;103727.09;;;0.31;88.32
71764;BME280;59602;52.142;5.408;2023-02-10T03:30:43;103722.47;;;0.26;88.60
71764;BME280;59602;52.142;5.408;2023-02-10T03:33:14;103727.00;;;0.26;88.13
71764;BME280;59602;52.142;5.408;2023-02-10T03:35:42;103723.28;;;0.27;88.39
71764;BME280;59602;52.142;5.408;2023-02-10T03:38:09;103729.19;;;0.29;88.68
71764;BME280;59602;52.142;5.408;2023-02-10T03:40:37;103724.69;;;0.29;88.61
71764;BME280;59602;52.142;5.408;2023-02-10T03:43:04;103728.88;;;0.25;88.37
71764;BME280;59602;52.142;5.408;2023-02-10T03:45:30;103729.09;;;0.24;88.43
71764;BME280;59602;52.142;5.408;2023-02-10T03:47:57;103730.41;;;0.21;88.38
71764;BME280;59602;52.142;5.408;2023-02-10T03:50:27;103732.28;;;0.20;88.68
71764;BME280;59602;52.142;5.408;2023-02-10T03:52:53;103729.81;;;0.19;88.45
71764;BME280;59602;52.142;5.408;2023-02-10T03:55:21;103734.59;;;0.17;88.62
71764;BME280;59602;52.142;5.408;2023-02-10T03:57:47;103733.78;;;0.16;88.10
71764;BME280;59602;52.142;5.408;2023-02-10T04:00:14;103728.44;;;0.16;88.71
71764;BME280;59602;52.142;5.408;2023-02-10T04:02:41;103732.97;;;0.16;88.24
71764;BME280;59602;52.142;5.408;2023-02-10T04:05:08;103729.25;;;0.17;88.22
71764;BME280;59602;52.142;5.408;2023-02-10T04:07:35;103740.16;;;0.15;88.67
71764;BME280;59602;52.142;5.408;2023-02-10T04:10:03;103731.13;;;0.16;88.81
71764;BME280;59602;52.142;5.408;2023-02-10T04:12:30;103745.28;;;0.17;88.75
71764;BME280;59602;52.142;5.408;2023-02-10T04:14:58;103735.41;;;0.17;88.61
71764;BME280;59602;52.142;5.408;2023-02-10T04:17:24;103748.78;;;0.17;88.96
71764;BME280;59602;52.142;5.408;2023-02-10T04:19:52;103750.41;;;0.18;88.82
71764;BME280;59602;52.142;5.408;2023-02-10T04:22:18;103746.94;;;0.18;88.82
71764;BME280;59602;52.142;5.408;2023-02-10T04:24:45;103745.28;;;0.17;88.99
71764;BME280;59602;52.142;5.408;2023-02-10T04:27:11;103746.94;;;0.18;89.27
71764;BME280;59602;52.142;5.408;2023-02-10T04:29:39;103747.38;;;0.15;89.04
71764;BME280;59602;52.142;5.408;2023-02-10T04:32:07;103754.13;;;0.17;89.02
71764;BME280;59602;52.142;5.408;2023-02-10T04:34:34;103755.50;;;0.20;89.58
71764;BME280;59602;52.142;5.408;2023-02-10T04:37:02;103758.31;;;0.25;89.85
71764;BME280;59602;52.142;5.408;2023-02-10T04:39:28;103747.47;;;0.32;90.22
71764;BME280;59602;52.142;5.408;2023-02-10T04:41:55;103754.66;;;0.43;90.19
71764;BME280;59602;52.142;5.408;2023-02-10T04:44:21;103754.03;;;0.53;90.75
71764;BME280;59602;52.142;5.408;2023-02-10T04:46:48;103755.75;;;0.59;91.11
71764;BME280;59602;52.142;5.408;2023-02-10T04:49:17;103758.22;;;0.60;91.69
71764;BME280;59602;52.142;5.408;2023-02-10T04:51:44;103760.41;;;0.64;91.82
71764;BME280;59602;52.142;5.408;2023-02-10T04:54:10;103752.13;;;0.65;91.76
71764;BME280;59602;52.142;5.408;2023-02-10T04:56:37;103747.34;;;0.67;91.86
71764;BME280;59602;52.142;5.408;2023-02-10T04:59:04;103742.00;;;0.67;92.18
71764;BME280;59602;52.142;5.408;2023-02-10T05:01:30;103732.91;;;0.68;92.03
71764;BME280;59602;52.142;5.408;2023-02-10T05:03:57;103728.94;;;0.71;92.62
71764;BME280;59602;52.142;5.408;2023-02-10T05:06:24;103732.19;;;0.73;92.19
71764;BME280;59602;52.142;5.408;2023-02-10T05:08:50;103733.25;;;0.72;92.30
71764;BME280;59602;52.142;5.408;2023-02-10T05:11:17;103735.09;;;0.71;92.36
71764;BME280;59602;52.142;5.408;2023-02-10T05:13:44;103736.72;;;0.72;92.34
71764;BME280;59602;52.142;5.408;2023-02-10T05:16:12;103733.25;;;0.72;92.14
71764;BME280;59602;52.142;5.408;2023-02-10T05:18:39;103744.19;;;0.70;92.12
71764;BME280;59602;52.142;5.408;2023-02-10T05:21:07;103746.28;;;0.68;92.53
71764;BME280;59602;52.142;5.408;2023-02-10T05:23:34;103755.63;;;0.66;91.90
71764;BME280;59602;52.142;5.408;2023-02-10T05:26:01;103746.19;;;0.63;91.97
71764;BME280;59602;52.142;5.408;2023-02-10T05:28:28;103744.56;;;0.62;91.67
71764;BME280;59602;52.142;5.408;2023-02-10T05:30:55;103741.09;;;0.61;91.92
71764;BME280;59602;52.142;5.408;2023-02-10T05:33:21;103749.91;;;0.62;91.93
71764;BME280;59602;52.142;5.408;2023-02-10T05:35:48;103746.44;;;0.61;91.51
71764;BME280;59602;52.142;5.408;2023-02-10T05:38:15;103752.38;;;0.64;91.78
71764;BME280;59602;52.142;5.408;2023-02-10T05:40:41;103748.88;;;0.63;91.84
71764;BME280;59602;52.142;5.408;2023-02-10T05:43:08;103752.38;;;0.64;92.05
71764;BME280;59602;52.142;5.408;2023-02-10T05:45:36;103748.03;;;0.62;91.52
71764;BME280;59602;52.142;5.408;2023-02-10T05:48:02;103744.81;;;0.60;91.53
71764;BME280;59602;52.142;5.408;2023-02-10T05:50:29;103739.94;;;0.57;91.12
71764;BME280;59602;52.142;5.408;2023-02-10T05:52:56;103742.88;;;0.56;91.43
71764;BME280;59602;52.142;5.408;2023-02-10T05:55:22;103748.91;;;0.51;91.07
71764;BME280;59602;52.142;5.408;2023-02-10T05:57:51;103738.69;;;0.48;90.89
71764;BME280;59602;52.142;5.408;2023-02-10T06:00:18;103741.38;;;0.48;90.97
71764;BME280;59602;52.142;5.408;2023-02-10T06:02:45;103744.28;;;0.47;91.10
71764;BME280;59602;52.142;5.408;2023-02-10T06:05:11;103748.59;;;0.48;90.78
71764;BME280;59602;52.142;5.408;2023-02-10T06:07:38;103746.94;;;0.47;90.86
71764;BME280;59602;52.142;5.408;2023-02-10T06:10:04;103743.94;;;0.43;90.81
71764;BME280;59602;52.142;5.408;2023-02-10T06:12:31;103747.66;;;0.42;90.80
71764;BME280;59602;52.142;5.408;2023-02-10T06:14:58;103745.81;;;0.43;90.91
71764;BME280;59602;52.142;5.408;2023-02-10T06:17:24;103750.69;;;0.46;91.19
71764;BME280;59602;52.142;5.408;2023-02-10T06:19:53;103748.00;;;0.46;91.05
71764;BME280;59602;52.142;5.408;2023-02-10T06:22:20;103752.56;;;0.45;91.19
71764;BME280;59602;52.142;5.408;2023-02-10T06:24:46;103750.09;;;0.44;91.18
71764;BME280;59602;52.142;5.408;2023-02-10T06:27:14;103758.63;;;0.40;91.10
71764;BME280;59602;52.142;5.408;2023-02-10T06:29:41;103754.31;;;0.39;91.18
71764;BME280;59602;52.142;5.408;2023-02-10T06:32:07;103767.47;;;0.41;90.92
71764;BME280;59602;52.142;5.408;2023-02-10T06:34:34;103766.97;;;0.44;91.46
71764;BME280;59602;52.142;5.408;2023-02-10T06:37:00;103764.41;;;0.49;91.68
71764;BME280;59602;52.142;5.408;2023-02-10T06:39:28;103763.94;;;0.52;91.75
71764;BME280;59602;52.142;5.408;2023-02-10T06:41:57;103766.13;;;0.55;91.56
71764;BME280;59602;52.142;5.408;2023-02-10T06:44:26;103771.47;;;0.55;91.78
71764;BME280;59602;52.142;5.408;2023-02-10T06:46:52;103759.97;;;0.55;91.76
71764;BME280;59602;52.142;5.408;2023-02-10T06:49:19;103762.63;;;0.55;91.98
71764;BME280;59602;52.142;5.408;2023-02-10T06:51:45;103765.91;;;0.57;92.16
71764;BME280;59602;52.142;5.408;2023-02-10T06:54:12;103776.38;;;0.58;92.29
71764;BME280;59602;52.142;5.408;2023-02-10T06:56:38;103775.31;;;0.59;92.62
71764;BME280;59602;52.142;5.408;2023-02-10T06:59:05;103770.75;;;0.60;92.54
71764;BME280;59602;52.142;5.408;2023-02-10T07:01:32;103774.28;;;0.60;92.29
71764;BME280;59602;52.142;5.408;2023-02-10T07:03:59;103779.06;;;0.58;92.40
71764;BME280;59602;52.142;5.408;2023-02-10T07:06:26;103775.53;;;0.58;92.16
71764;BME280;59602;52.142;5.408;2023-02-10T07:08:53;103770.75;;;0.60;92.47
71764;BME280;59602;52.142;5.408;2023-02-10T07:11:20;103774.50;;;0.59;91.63
71764;BME280;59602;52.142;5.408;2023-02-10T07:13:46;103780.16;;;0.62;91.98
71764;BME280;59602;52.142;5.408;2023-02-10T07:16:14;103783.69;;;0.63;91.82
71764;BME280;59602;52.142;5.408;2023-02-10T07:18:43;103784.50;;;0.64;91.94
71764;BME280;59602;52.142;5.408;2023-02-10T07:21:09;103785.06;;;0.66;91.90
71764;BME280;59602;52.142;5.408;2023-02-10T07:23:36;103777.03;;;0.66;91.76
71764;BME280;59602;52.142;5.408;2023-02-10T07:26:04;103777.84;;;0.66;92.30
71764;BME280;59602;52.142;5.408;2023-02-10T07:28:32;103781.31;;;0.67;92.01
71764;BME280;59602;52.142;5.408;2023-02-10T07:30:59;103781.91;;;0.69;91.91
71764;BME280;59602;52.142;5.408;2023-02-10T07:33:26;103784.13;;;0.72;91.96
71764;BME280;59602;52.142;5.408;2023-02-10T07:35:59;103785.81;;;0.78;92.28
71764;BME280;59602;52.142;5.408;2023-02-10T07:38:26;103792.34;;;0.82;92.37
71764;BME280;59602;52.142;5.408;2023-02-10T07:40:52;103795.13;;;0.87;93.21
71764;BME280;59602;52.142;5.408;2023-02-10T07:43:19;103805.94;;;0.92;92.93
71764;BME280;59602;52.142;5.408;2023-02-10T07:45:46;103815.56;;;0.93;93.04
71764;BME280;59602;52.142;5.408;2023-02-10T07:48:13;103819.06;;;0.94;93.25
71764;BME280;59602;52.142;5.408;2023-02-10T07:50:40;103817.78;;;0.96;93.11
71764;BME280;59602;52.142;5.408;2023-02-10T07:53:07;103816.22;;;1.00;93.29
71764;BME280;59602;52.142;5.408;2023-02-10T07:55:33;103818.69;;;1.02;93.41
71764;BME280;59602;52.142;5.408;2023-02-10T07:58:03;103834.28;;;1.05;93.26
71764;BME280;59602;52.142;5.408;2023-02-10T08:00:29;103836.13;;;1.04;93.13
71764;BME280;59602;52.142;5.408;2023-02-10T08:02:56;103829.47;;;1.07;93.40
71764;BME280;59602;52.142;5.408;2023-02-10T08:05:22;103827.38;;;1.09;93.31
71764;BME280;59602;52.142;5.408;2023-02-10T08:07:49;103823.44;;;1.12;93.04
71764;BME280;59602;52.142;5.408;2023-02-10T08:10:16;103817.81;;;1.13;93.40
71764;BME280;59602;52.142;5.408;2023-02-10T08:12:43;103824.56;;;1.16;92.98
71764;BME280;59602;52.142;5.408;2023-02-10T08:15:10;103818.97;;;1.17;92.83
71764;BME280;59602;52.142;5.408;2023-02-10T08:17:36;103818.97;;;1.17;92.80
71764;BME280;59602;52.142;5.408;2023-02-10T08:20:05;103817.09;;;1.18;92.44
71764;BME280;59602;52.142;5.408;2023-02-10T08:22:33;103808.81;;;1.19;92.66
71764;BME280;59602;52.142;5.408;2023-02-10T08:25:01;103810.44;;;1.20;92.61
71764;BME280;59602;52.142;5.408;2023-02-10T08:27:28;103807.50;;;1.22;92.75
71764;BME280;59602;52.142;5.408;2023-02-10T08:29:55;103808.16;;;1.29;92.78
71764;BME280;59602;52.142;5.408;2023-02-10T08:32:22;103810.38;;;1.32;92.79
71764;BME280;59602;52.142;5.408;2023-02-10T08:34:50;103816.88;;;1.36;93.25
71764;BME280;59602;52.142;5.408;2023-02-10T08:37:17;103811.38;;;1.43;92.50
71764;BME280;59602;52.142;5.408;2023-02-10T08:39:44;103809.56;;;1.49;92.68
71764;BME280;59602;52.142;5.408;2023-02-10T08:42:10;103822.47;;;1.52;92.40
71764;BME280;59602;52.142;5.408;2023-02-10T08:44:37;103818.25;;;1.56;92.71
71764;BME280;59602;52.142;5.408;2023-02-10T08:47:04;103819.63;;;1.58;92.70
71764;BME280;59602;52.142;5.408;2023-02-10T08:49:30;103812.72;;;1.62;92.67
71764;BME280;59602;52.142;5.408;2023-02-10T08:51:57;103810.38;;;1.66;91.87
71764;BME280;59602;52.142;5.408;2023-02-10T08:54:23;103817.34;;;1.67;92.32
71764;BME280;59602;52.142;5.408;2023-02-10T08:56:53;103824.38;;;1.68;92.22
71764;BME280;59602;52.142;5.408;2023-02-10T08:59:21;103824.94;;;1.70;92.52
71764;BME280;59602;52.142;5.408;2023-02-10T09:01:47;103824.44;;;1.73;92.16
71764;BME280;59602;52.142;5.408;2023-02-10T09:04:14;103831.97;;;1.76;92.79
71764;BME280;59602;52.142;5.408;2023-02-10T09:06:41;103830.44;;;1.80;92.48
71764;BME280;59602;52.142;5.408;2023-02-10T09:09:11;103838.25;;;1.82;92.53
71764;BME280;59602;52.142;5.408;2023-02-10T09:11:40;103838.59;;;1.85;92.13
71764;BME280;59602;52.142;5.408;2023-02-10T09:14:07;103833.06;;;1.92;91.99
71764;BME280;59602;52.142;5.408;2023-02-10T09:16:35;103835.81;;;1.97;92.12
71764;BME280;59602;52.142;5.408;2023-02-10T09:19:02;103837.16;;;2.00;92.19
71764;BME280;59602;52.142;5.408;2023-02-10T09:21:29;103840.19;;;2.03;91.75
71764;BME280;59602;52.142;5.408;2023-02-10T09:24:11;103839.91;;;2.05;91.92
71764;BME280;59602;52.142;5.408;2023-02-10T09:26:37;103837.81;;;2.07;91.52
71764;BME280;59602;52.142;5.408;2023-02-10T09:29:04;103839.19;;;2.10;91.75
71764;BME280;59602;52.142;5.408;2023-02-10T09:31:31;103844.53;;;2.10;91.63
71764;BME280;59602;52.142;5.408;2023-02-10T09:33:57;103843.00;;;2.14;92.15
71764;BME280;59602;52.142;5.408;2023-02-10T09:36:24;103845.22;;;2.17;91.63
71764;BME280;59602;52.142;5.408;2023-02-10T09:38:50;103844.47;;;2.21;91.79
71764;BME280;59602;52.142;5.408;2023-02-10T09:49:27;103845.59;;;2.47;91.54
71764;BME280;59602;52.142;5.408;2023-02-10T09:52:11;103849.66;;;2.50;91.45
71764;BME280;59602;52.142;5.408;2023-02-10T09:54:43;103848.28;;;2.47;91.55
71764;BME280;59602;52.142;5.408;2023-02-10T09:57:14;103845.28;;;2.44;91.47
71764;BME280;59602;52.142;5.408;2023-02-10T09:59:43;103855.78;;;2.45;91.64
71764;BME280;59602;52.142;5.408;2023-02-10T10:02:24;103846.16;;;2.49;91.98
71764;BME280;59602;52.142;5.408;2023-02-10T10:04:54;103841.69;;;2.55;91.55
71764;BME280;59602;52.142;5.408;2023-02-10T10:07:26;103842.53;;;2.61;91.78
71764;BME280;59602;52.142;5.408;2023-02-10T10:10:02;103848.78;;;2.66;91.76
71764;BME280;59602;52.142;5.408;2023-02-10T10:12:30;103852.41;;;2.77;91.63
71764;BME280;59602;52.142;5.408;2023-02-10T10:14:57;103853.59;;;2.86;91.83
71764;BME280;59602;52.142;5.408;2023-02-10T10:17:43;103852.03;;;2.90;91.38
71764;BME280;59602;52.142;5.408;2023-02-10T10:20:21;103855.00;;;2.94;91.11
71764;BME280;59602;52.142;5.408;2023-02-10T10:23:03;103848.06;;;2.98;91.49
71764;BME280;59602;52.142;5.408;2023-02-10T10:30:59;103829.72;;;3.17;91.11
71764;BME280;59602;52.142;5.408;2023-02-10T10:33:30;103828.69;;;3.23;91.52
71764;BME280;59602;52.142;5.408;2023-02-10T10:35:58;103817.16;;;3.28;91.22
71764;BME280;59602;52.142;5.408;2023-02-10T10:38:32;103831.22;;;3.35;90.98
71764;BME280;59602;52.142;5.408;2023-02-10T10:41:03;103823.19;;;3.40;91.36
71764;BME280;59602;52.142;5.408;2023-02-10T10:43:32;103823.00;;;3.47;91.05
71764;BME280;59602;52.142;5.408;2023-02-10T10:46:06;103824.66;;;3.53;90.71
71764;BME280;59602;52.142;5.408;2023-02-10T10:48:40;103812.03;;;3.59;90.34
71764;BME280;59602;52.142;5.408;2023-02-10T10:51:08;103823.94;;;3.68;90.74
71764;BME280;59602;52.142;5.408;2023-02-10T10:53:44;103827.50;;;3.73;90.32
71764;BME280;59602;52.142;5.408;2023-02-10T10:56:27;103829.41;;;3.78;90.22
71764;BME280;59602;52.142;5.408;2023-02-10T10:58:59;103830.00;;;3.85;89.85
71764;BME280;59602;52.142;5.408;2023-02-10T11:01:37;103824.38;;;3.92;89.78
71764;BME280;59602;52.142;5.408;2023-02-10T11:04:10;103828.97;;;3.97;89.43
71764;BME280;59602;52.142;5.408;2023-02-10T11:06:39;103834.94;;;3.99;89.17
71764;BME280;59602;52.142;5.408;2023-02-10T11:09:19;103822.31;;;4.04;89.46
71764;BME280;59602;52.142;5.408;2023-02-10T11:11:46;103822.34;;;4.09;88.94
71764;BME280;59602;52.142;5.408;2023-02-10T11:14:17;103824.50;;;4.12;88.49
71764;BME280;59602;52.142;5.408;2023-02-10T11:16:49;103829.09;;;4.17;88.08
71764;BME280;59602;52.142;5.408;2023-02-10T11:19:20;103819.97;;;4.23;88.46
71764;BME280;59602;52.142;5.408;2023-02-10T11:21:48;103825.38;;;4.28;87.70
71764;BME280;59602;52.142;5.408;2023-02-10T11:24:20;103819.22;;;4.33;87.81
71764;BME280;59602;52.142;5.408;2023-02-10T11:26:57;103808.47;;;4.38;87.67
71764;BME280;59602;52.142;5.408;2023-02-10T11:29:26;103806.59;;;4.44;87.62
71764;BME280;59602;52.142;5.408;2023-02-10T11:31:53;103810.94;;;4.50;87.47
71764;BME280;59602;52.142;5.408;2023-02-10T11:36:48;103808.00;;;4.56;87.49
71764;BME280;59602;52.142;5.408;2023-02-10T11:39:19;103809.34;;;4.59;86.38
71764;BME280;59602;52.142;5.408;2023-02-10T11:41:48;103796.97;;;4.63;86.63
71764;BME280;59602;52.142;5.408;2023-02-10T11:44:25;103799.97;;;4.67;86.12
71764;BME280;59602;52.142;5.408;2023-02-10T11:46:58;103788.38;;;4.71;86.11
71764;BME280;59602;52.142;5.408;2023-02-10T11:49:26;103793.22;;;4.74;85.79
71764;BME280;59602;52.142;5.408;2023-02-10T11:52:00;103795.13;;;4.79;85.68
71764;BME280;59602;52.142;5.408;2023-02-10T11:54:27;103794.88;;;4.81;84.63
71764;BME280;59602;52.142;5.408;2023-02-10T11:56:56;103801.06;;;4.86;84.60
71764;BME280;59602;52.142;5.408;2023-02-10T11:59:59;103794.88;;;4.91;84.76
71764;BME280;59602;52.142;5.408;2023-02-10T12:02:37;103791.38;;;4.95;84.79
71764;BME280;59602;52.142;5.408;2023-02-10T12:08:07;103781.16;;;5.03;84.42
71764;BME280;59602;52.142;5.408;2023-02-10T12:16:07;103778.47;;;5.18;83.92
71764;BME280;59602;52.142;5.408;2023-02-10T12:21:20;103797.34;;;5.28;83.24
71764;BME280;59602;52.142;5.408;2023-02-10T12:24:18;103796.25;;;5.34;82.69
71764;BME280;59602;52.142;5.408;2023-02-10T12:26:54;103783.31;;;5.41;82.98
71764;BME280;59602;52.142;5.408;2023-02-10T12:32:16;103783.84;;;5.54;82.55
71764;BME280;59602;52.142;5.408;2023-02-10T12:34:59;103781.94;;;5.59;82.04
71764;BME280;59602;52.142;5.408;2023-02-10T12:37:40;103775.19;;;5.62;82.70
71764;BME280;59602;52.142;5.408;2023-02-10T12:40:29;103766.56;;;5.65;82.19
71764;BME280;59602;52.142;5.408;2023-02-10T12:45:41;103762.47;;;5.73;81.22
71764;BME280;59602;52.142;5.408;2023-02-10T12:48:23;103766.53;;;5.80;81.36
71764;BME280;59602;52.142;5.408;2023-02-10T12:51:04;103766.47;;;5.91;81.12
71764;BME280;59602;52.142;5.408;2023-02-10T12:53:37;103769.47;;;5.99;81.59
71764;BME280;59602;52.142;5.408;2023-02-10T12:56:19;103768.38;;;6.06;80.43
71764;BME280;59602;52.142;5.408;2023-02-10T12:58:53;103770.25;;;6.10;80.98
71764;BME280;59602;52.142;5.408;2023-02-10T13:03:53;103758.94;;;6.03;80.94
71764;BME280;59602;52.142;5.408;2023-02-10T13:06:28;103755.69;;;6.01;80.12
71764;BME280;59602;52.142;5.408;2023-02-10T13:09:05;103755.41;;;6.02;80.12
71764;BME280;59602;52.142;5.408;2023-02-10T13:11:42;103747.81;;;6.05;79.54
71764;BME280;59602;52.142;5.408;2023-02-10T13:14:18;103754.59;;;6.02;79.63
71764;BME280;59602;52.142;5.408;2023-02-10T13:16:51;103751.88;;;6.02;79.82
71764;BME280;59602;52.142;5.408;2023-02-10T13:19:23;103739.19;;;6.02;79.94
71764;BME280;59602;52.142;5.408;2023-02-10T13:21:58;103727.06;;;6.05;80.48
71764;BME280;59602;52.142;5.408;2023-02-10T13:24:31;103722.97;;;6.08;79.91
71764;BME280;59602;52.142;5.408;2023-02-10T13:35:00;103710.75;;;6.20;79.01
71764;BME280;59602;52.142;5.408;2023-02-10T13:37:47;103691.84;;;6.20;78.64
71764;BME280;59602;52.142;5.408;2023-02-10T13:42:58;103679.97;;;6.21;78.76
71764;BME280;59602;52.142;5.408;2023-02-10T13:45:29;103686.16;;;6.22;77.84
71764;BME280;59602;52.142;5.408;2023-02-10T13:47:59;103685.09;;;6.23;77.99
71764;BME280;59602;52.142;5.408;2023-02-10T13:50:31;103684.00;;;6.24;77.96
71764;BME280;59602;52.142;5.408;2023-02-10T13:53:02;103677.22;;;6.27;77.81
71764;BME280;59602;52.142;5.408;2023-02-10T14:00:43;103673.69;;;6.31;78.10
71764;BME280;59602;52.142;5.408;2023-02-10T14:06:06;103680.66;;;6.37;78.57
71764;BME280;59602;52.142;5.408;2023-02-10T14:08:41;103679.28;;;6.40;79.05
71764;BME280;59602;52.142;5.408;2023-02-10T14:11:39;103672.84;;;6.36;78.50
71764;BME280;59602;52.142;5.408;2023-02-10T14:17:02;103670.41;;;6.39;79.20
71764;BME280;59602;52.142;5.408;2023-02-10T14:19:35;103668.22;;;6.41;79.47
71764;BME280;59602;52.142;5.408;2023-02-10T14:22:04;103660.34;;;6.45;79.87
71764;BME280;59602;52.142;5.408;2023-02-10T14:24:35;103644.63;;;6.52;80.33